Airfield :
LOGIN :

Register | Disclaimer

   EN    FR    IT 

 










Legend :    VFR   Marginal VFR   IFR   Intensive IFR   Very Intensive IFR
Visi :
Ceiling :
>= 8 km
>= 3000ft
5 to 8 km
1000 to 3000 ft
1500m to 5 km
500 to 1000 ft
800 to 1500m
200 to 500 ft
< 800m
< 200 ft
Symbols :   Thunderstorms  Fog  Heavy snow  Heavy precipitations  Wind > 20 kt
SIGMETs :     Misc.  Thunderstorms  Icing  Turbulence  Mountain Waves  Volcanic Ashes







- Airport Elevation : 220 ft
- IATA code : CWL
- Download approach charts


EGFF - Cardiff Rhoose

CURRENT METAR :
  • 200920Z AUTO 26017KT 6000 -RA BKN004 OVC009 11/11 Q1015 RERA REDZ

EXPIRED METARs :
  • 200850Z AUTO 26018KT 8000 -RA OVC007 12/11 Q1016 RERA
  • 200820Z AUTO 26016KT 4900 -DZ OVC008 12/11 Q1016
  • 200750Z AUTO 26016KT 9999 BKN007 OVC011 11/11 Q1016
  • 200720Z AUTO 26018KT 9999 BKN006 OVC011 11/11 Q1016
  • 200650Z AUTO 26016G26KT 9999 BKN006 OVC010 11/10 Q1016

TAF TAF EGFF
Valid from the 20 at 06:00 until the 21 at 06:00 UTC


200458Z 2006/2106 24012KT 9999 SCT010
TEMPO 2006/2106 9000 -RA BKN010
PROB30
TEMPO 2006/2021 25018G28KT
PROB30
TEMPO 2006/2009 4000 RADZ BKN004
PROB30
TEMPO 2009/2024 4000 RADZ BKN009
ATIS : +44 1446 729 319
No reported NOTAMs for that airfield.



MET'MAP, your aeronautical weather chart ! - Copyright ORBIFLY December 2007 - Disclaimer

ORBIFLY MET'MAP TEAM :

Programming & Development : Alexandra Zaïnal
Concept & Development : Baudouin d'Aumeries
Co-Development & Prog : Marc-Olivier Méhu
Technical & hardware support : Manuel Goepfert

Contact : metmap@orbifly.com




SOURCES & CREDITS :

   NOAA